Time;durP1;ratioP1;P1;durP2;ratioP2;P2;SDS_P1;SDS_P2;PMS_P1;PMS_P2;Temp;Humidity;BMP_temperature;BMP_pressure;BME280_temperature;BME280_humidity;BME280_pressure;Samples;Min_cycle;Max_cycle;Signal;HPM_P1;HPM_P2
2024/01/23 00:00:07;;;;;;;9.93;2.38;;;;;;;5.19;100.00;98347.28;6106304;19;20451;-74
2024/01/23 00:02:08;;;;;;;4.35;2.13;;;;;;;5.26;100.00;98350.25;6106064;19;20007;-74
2024/01/23 00:04:08;;;;;;;5.43;1.58;;;;;;;5.38;100.00;98343.94;6105301;19;20358;-73
2024/01/23 00:06:08;;;;;;;4.28;1.50;;;;;;;5.33;100.00;98347.72;6104299;19;20005;-74
2024/01/23 00:08:09;;;;;;;5.55;2.35;;;;;;;5.35;100.00;98353.66;6105760;19;20032;-74
2024/01/23 00:10:09;;;;;;;10.05;1.88;;;;;;;5.40;100.00;98355.38;6105294;19;20002;-74
2024/01/23 00:12:09;;;;;;;10.38;2.22;;;;;;;5.43;100.00;98351.13;6105854;19;20463;-74
2024/01/23 00:14:10;;;;;;;6.35;2.67;;;;;;;5.43;100.00;98354.66;6104955;19;20032;-74
2024/01/23 00:16:10;;;;;;;7.88;1.77;;;;;;;5.48;100.00;98356.38;6104682;19;20001;-74
2024/01/23 00:18:11;;;;;;;8.30;3.20;;;;;;;5.44;100.00;98348.03;6109513;19;20002;-74
2024/01/23 00:20:11;;;;;;;10.02;2.08;;;;;;;5.37;100.00;98345.06;6110698;19;20002;-74
2024/01/23 00:22:11;;;;;;;5.55;2.13;;;;;;;5.29;100.00;98340.50;6110117;19;20011;-74
2024/01/23 00:24:12;;;;;;;7.80;1.85;;;;;;;5.26;100.00;98349.44;6110806;19;20236;-73
2024/01/23 00:26:12;;;;;;;5.78;2.20;;;;;;;5.26;100.00;98349.44;6110224;19;20848;-74
2024/01/23 00:28:13;;;;;;;8.02;2.03;;;;;;;5.24;100.00;98343.50;6110888;19;20006;-74
2024/01/23 00:30:14;;;;;;;5.22;1.30;;;;;;;5.26;100.00;98344.75;6110932;19;20006;-74
2024/01/23 00:32:14;;;;;;;8.23;1.60;;;;;;;5.30;100.00;98355.84;6111494;19;20036;-74
2024/01/23 00:34:15;;;;;;;10.63;2.40;;;;;;;5.26;100.00;98346.69;6111701;19;20536;-74
2024/01/23 00:36:15;;;;;;;8.73;1.90;;;;;;;5.22;100.00;98343.06;6108798;19;20003;-74
2024/01/23 00:38:15;;;;;;;5.57;1.70;;;;;;;5.14;100.00;98354.97;6110235;19;20007;-74
2024/01/23 00:40:16;;;;;;;7.18;1.83;;;;;;;5.11;100.00;98347.41;6110855;19;20352;-74
2024/01/23 00:42:16;;;;;;;6.97;2.13;;;;;;;5.15;100.00;98362.03;6109627;19;20343;-74
2024/01/23 00:44:16;;;;;;;6.97;2.15;;;;;;;5.21;100.00;98349.66;6110129;19;20029;-74
2024/01/23 00:46:16;;;;;;;7.45;1.77;;;;;;;5.28;100.00;98349.88;6107439;19;20083;-74
2024/01/23 00:48:17;;;;;;;7.18;1.88;;;;;;;5.20;100.00;98359.03;6096963;19;20542;-73
2024/01/23 00:50:17;;;;;;;12.23;3.30;;;;;;;5.17;100.00;98367.97;6109814;19;20003;-74
2024/01/23 00:52:17;;;;;;;7.63;3.38;;;;;;;5.15;100.00;98364.78;6109292;19;20010;-74
2024/01/23 00:54:18;;;;;;;8.40;1.70;;;;;;;5.18;100.00;98361.34;6109183;19;20003;-74
2024/01/23 00:56:18;;;;;;;4.88;1.75;;;;;;;5.19;100.00;98351.97;6108756;19;20344;-74
2024/01/23 00:58:18;;;;;;;9.18;1.75;;;;;;;5.17;100.00;98357.81;6109574;19;20026;-74
2024/01/23 01:00:19;;;;;;;5.55;1.60;;;;;;;5.13;100.00;98362.38;6111976;19;20018;-74
2024/01/23 01:02:19;;;;;;;8.15;1.70;;;;;;;5.18;100.00;98353.13;6112205;19;20007;-74
2024/01/23 01:04:20;;;;;;;11.90;2.42;;;;;;;5.24;100.00;98362.72;6109515;19;19999;-74
2024/01/23 01:06:20;;;;;;;10.07;2.45;;;;;;;5.18;100.00;98359.41;6110247;19;20010;-74
2024/01/23 01:08:20;;;;;;;6.10;2.17;;;;;;;5.13;100.00;98373.38;6110533;19;20093;-74
2024/01/23 01:10:22;;;;;;;4.78;1.70;;;;;;;5.20;100.00;98372.75;6111907;19;20033;-74
2024/01/23 01:12:23;;;;;;;11.40;1.95;;;;;;;5.23;100.00;98374.84;6109404;19;20085;-74
2024/01/23 01:14:24;;;;;;;10.07;2.15;;;;;;;5.18;100.00;98386.03;6111055;19;20027;-74
2024/01/23 01:16:24;;;;;;;5.68;1.83;;;;;;;5.21;100.00;98402.63;6109965;19;20089;-74
2024/01/23 01:18:24;;;;;;;7.47;1.40;;;;;;;5.26;100.00;98409.78;6111647;19;20013;-74
2024/01/23 01:20:25;;;;;;;7.40;1.80;;;;;;;5.27;100.00;98395.72;6111155;19;20013;-74
2024/01/23 01:22:25;;;;;;;6.63;2.58;;;;;;;5.12;100.00;98410.13;6110976;19;20894;-74
2024/01/23 01:24:25;;;;;;;4.95;1.60;;;;;;;5.03;100.00;98407.50;6110916;19;20056;-74
2024/01/23 01:26:26;;;;;;;4.88;1.67;;;;;;;4.99;100.00;98422.25;6107435;19;20516;-74
2024/01/23 01:28:26;;;;;;;6.40;1.80;;;;;;;4.87;100.00;98420.28;6109952;19;20078;-74
2024/01/23 01:30:28;;;;;;;5.60;1.67;;;;;;;4.85;100.00;98416.31;6111129;19;20114;-74
2024/01/23 01:32:28;;;;;;;3.95;1.63;;;;;;;4.83;100.00;98415.84;6110616;19;20335;-74
2024/01/23 01:34:29;;;;;;;5.45;1.55;;;;;;;4.86;100.00;98434.34;6110854;19;20101;-73
2024/01/23 01:36:29;;;;;;;6.80;1.80;;;;;;;4.92;100.00;98419.28;6108493;19;20050;-74
2024/01/23 01:38:29;;;;;;;5.35;2.00;;;;;;;4.79;100.00;98413.78;6110528;19;20017;-74
2024/01/23 01:40:29;;;;;;;7.20;1.92;;;;;;;4.63;100.00;98415.59;6110767;19;20317;-74
2024/01/23 01:42:30;;;;;;;6.40;1.50;;;;;;;4.62;100.00;98414.00;6110291;19;20003;-74
2024/01/23 01:44:32;;;;;;;7.43;1.70;;;;;;;4.60;100.00;98421.75;6111107;19;20003;-74
2024/01/23 01:46:32;;;;;;;3.03;1.40;;;;;;;4.68;100.00;98425.53;6109237;19;20462;-74
2024/01/23 01:48:33;;;;;;;4.97;1.50;;;;;;;4.75;100.00;98425.78;6104018;19;19995;-74
2024/01/23 01:50:33;;;;;;;5.00;1.38;;;;;;;4.71;100.00;98417.41;6103691;19;19998;-74
2024/01/23 01:52:36;;;;;;;5.07;1.42;;;;;;;4.74;100.00;98432.41;6102891;19;20002;-74
2024/01/23 01:54:40;;;;;;;4.35;1.80;;;;;;;4.73;100.00;98447.25;6102958;19;20026;-74
2024/01/23 01:56:41;;;;;;;5.47;1.52;;;;;;;4.67;100.00;98443.94;6102215;19;20310;-74
2024/01/23 01:58:45;;;;;;;7.60;1.45;;;;;;;4.71;100.00;98455.00;6101585;19;20006;-74
2024/01/23 02:00:46;;;;;;;4.65;1.40;;;;;;;4.72;100.00;98470.31;6102769;19;20255;-74
2024/01/23 02:02:50;;;;;;;4.22;1.60;;;;;;;4.72;100.00;98457.41;6103027;19;20002;-74
2024/01/23 02:04:50;;;;;;;7.32;1.60;;;;;;;4.66;100.00;98467.00;6101392;19;20003;-74
2024/01/23 02:06:51;;;;;;;4.15;1.50;;;;;;;4.62;100.00;98470.75;6101764;19;20360;-74
2024/01/23 02:08:52;;;;;;;2.55;1.00;;;;;;;4.62;100.00;98462.50;6101971;19;20267;-74
2024/01/23 02:10:54;;;;;;;3.08;1.33;;;;;;;4.55;100.00;98467.75;6102754;19;20017;-74
2024/01/23 02:12:54;;;;;;;2.40;1.40;;;;;;;4.51;100.00;98478.59;6102935;19;20484;-74
2024/01/23 02:14:54;;;;;;;4.43;1.38;;;;;;;4.47;100.00;98492.19;6101924;19;20419;-74
2024/01/23 02:16:55;;;;;;;3.60;1.17;;;;;;;4.45;100.00;98494.44;6102730;19;20010;-74
2024/01/23 02:18:55;;;;;;;1.98;1.20;;;;;;;4.42;100.00;98502.53;6102121;19;20037;-74
2024/01/23 02:20:57;;;;;;;8.13;1.65;;;;;;;4.40;100.00;98493.88;6101416;19;20007;-73
2024/01/23 02:22:58;;;;;;;5.78;1.52;;;;;;;4.26;100.00;98496.09;6103105;19;20014;-73
2024/01/23 02:24:58;;;;;;;3.25;1.60;;;;;;;4.17;100.00;98494.22;6100408;19;20412;-74
2024/01/23 02:26:59;;;;;;;4.22;1.30;;;;;;;4.14;100.00;98491.34;6103301;19;20019;-74
2024/01/23 02:28:59;;;;;;;2.30;1.35;;;;;;;4.02;100.00;98503.03;6102078;19;20010;-73
2024/01/23 02:30:59;;;;;;;5.57;1.52;;;;;;;3.92;100.00;98501.50;6102387;19;20018;-73
2024/01/23 02:32:59;;;;;;;6.07;1.52;;;;;;;3.92;100.00;98495.22;6102903;19;20032;-73
2024/01/23 02:35:00;;;;;;;5.43;1.48;;;;;;;3.85;100.00;98505.91;6100750;19;20070;-74
2024/01/23 02:37:00;;;;;;;2.08;1.25;;;;;;;3.83;100.00;98499.97;6102853;19;20253;-74
2024/01/23 02:39:02;;;;;;;4.22;1.30;;;;;;;3.78;100.00;98495.47;6101892;19;20002;-74
2024/01/23 02:41:03;;;;;;;2.03;1.10;;;;;;;3.71;100.00;98495.19;6100264;19;20039;-74
2024/01/23 02:43:03;;;;;;;3.75;1.33;;;;;;;3.69;100.00;98491.22;6101899;19;20007;-74
2024/01/23 02:45:04;;;;;;;3.38;1.23;;;;;;;3.67;100.00;98489.59;6100808;19;20011;-74
2024/01/23 02:47:04;;;;;;;3.90;1.27;;;;;;;3.62;100.00;98489.00;6099632;19;20298;-74
2024/01/23 02:49:05;;;;;;;2.33;1.27;;;;;;;3.61;100.00;98492.88;6108061;19;20711;-74
2024/01/23 02:51:05;;;;;;;3.05;1.13;;;;;;;3.58;100.00;98501.75;6107570;19;19999;-74
2024/01/23 02:53:05;;;;;;;4.15;1.10;;;;;;;3.57;100.00;98505.63;6108147;19;20062;-74
2024/01/23 02:55:06;;;;;;;3.85;1.95;;;;;;;3.58;100.00;98508.00;6107135;19;20029;-74
2024/01/23 02:57:06;;;;;;;2.00;1.10;;;;;;;3.65;100.00;98505.56;6109709;19;20021;-74
2024/01/23 02:59:07;;;;;;;4.22;1.60;;;;;;;3.64;100.00;98509.44;6108332;19;20055;-74
2024/01/23 03:01:07;;;;;;;3.90;1.27;;;;;;;3.64;100.00;98506.69;6109321;19;20336;-74
2024/01/23 03:03:08;;;;;;;3.13;1.00;;;;;;;3.64;100.00;98497.66;6108750;19;20002;-74
2024/01/23 03:05:08;;;;;;;4.35;1.50;;;;;;;3.67;100.00;98506.03;6107939;19;20003;-74
2024/01/23 03:07:08;;;;;;;2.85;1.23;;;;;;;3.70;100.00;98512.75;6108219;19;20002;-73
2024/01/23 03:09:13;;;;;;;3.40;1.25;;;;;;;3.71;100.00;98538.97;6108267;19;20026;-74
2024/01/23 03:11:13;;;;;;;5.47;1.30;;;;;;;3.75;100.00;98561.03;6107930;19;20006;-73
2024/01/23 03:13:14;;;;;;;3.72;1.27;;;;;;;3.47;100.00;98572.41;6109963;19;20014;-73
2024/01/23 03:15:14;;;;;;;6.57;1.33;;;;;;;3.04;100.00;98608.13;6107691;19;20002;-73
2024/01/23 03:17:16;;;;;;;3.50;0.77;;;;;;;2.43;100.00;98612.84;6107829;19;20426;-72
2024/01/23 03:19:16;;;;;;;1.55;0.90;;;;;;;2.30;100.00;98589.22;6107992;19;20428;-73
2024/01/23 03:21:17;;;;;;;1.52;0.60;;;;;;;2.14;100.00;98586.97;6108969;19;20007;-73
2024/01/23 03:23:17;;;;;;;0.68;0.68;;;;;;;2.07;100.00;98585.84;6108299;19;20018;-73
2024/01/23 03:25:19;;;;;;;2.47;0.60;;;;;;;2.05;100.00;98588.88;6108063;19;20322;-73
2024/01/23 03:27:19;;;;;;;1.27;0.60;;;;;;;1.99;100.00;98601.09;6107928;19;20002;-73
2024/01/23 03:29:20;;;;;;;0.60;0.60;;;;;;;1.89;100.00;98613.09;6108155;19;19998;-73
2024/01/23 03:31:20;;;;;;;1.75;0.70;;;;;;;1.78;100.00;98617.25;6107327;19;20066;-73
2024/01/23 03:33:21;;;;;;;2.13;0.60;;;;;;;1.78;100.00;98616.44;6108908;19;20585;-74
2024/01/23 03:35:21;;;;;;;0.60;0.60;;;;;;;1.82;100.00;98631.88;6106861;19;20024;-73
2024/01/23 03:37:21;;;;;;;0.75;0.70;;;;;;;1.87;100.00;98626.25;6108465;19;20018;-73
2024/01/23 03:39:22;;;;;;;1.63;0.70;;;;;;;1.86;100.00;98632.84;6107059;19;20390;-73
2024/01/23 03:41:22;;;;;;;0.98;0.75;;;;;;;1.88;100.00;98643.44;6108094;19;20002;-73
2024/01/23 03:43:23;;;;;;;1.08;0.80;;;;;;;1.83;100.00;98640.88;6108059;19;20467;-73
2024/01/23 03:45:23;;;;;;;2.63;1.00;;;;;;;1.77;100.00;98640.19;6107612;19;20006;-74
2024/01/23 03:47:23;;;;;;;2.33;0.90;;;;;;;1.79;100.00;98642.59;6107917;19;20395;-73
2024/01/23 03:49:24;;;;;;;1.40;0.75;;;;;;;1.83;100.00;98640.88;6108671;19;20066;-73
2024/01/23 03:51:25;;;;;;;1.58;0.85;;;;;;;1.84;100.00;98640.53;6106800;19;20007;-73
2024/01/23 03:53:25;;;;;;;1.83;0.70;;;;;;;1.84;100.00;98640.53;6113395;19;20381;-73
2024/01/23 03:55:25;;;;;;;0.82;0.65;;;;;;;1.87;100.00;98639.09;6112415;19;20351;-74
2024/01/23 03:57:26;;;;;;;1.55;1.00;;;;;;;1.98;100.00;98629.47;6114018;19;20352;-74
2024/01/23 03:59:26;;;;;;;2.90;0.73;;;;;;;2.02;100.00;98625.00;6112687;19;20003;-73
2024/01/23 04:01:26;;;;;;;1.45;0.70;;;;;;;2.11;100.00;98628.56;6111002;19;20534;-73
2024/01/23 04:03:27;;;;;;;3.38;1.40;;;;;;;2.17;100.00;98632.75;6112569;19;20080;-74
2024/01/23 04:05:27;;;;;;;1.55;0.70;;;;;;;2.19;100.00;98643.34;6112816;19;20006;-73
2024/01/23 04:07:28;;;;;;;4.13;0.88;;;;;;;2.18;100.00;98639.81;6113679;19;20470;-74
2024/01/23 04:09:29;;;;;;;1.17;0.68;;;;;;;2.28;100.00;98641.44;6113665;19;20032;-74
2024/01/23 04:11:29;;;;;;;1.95;0.60;;;;;;;2.27;100.00;98639.81;6113534;19;20427;-74
2024/01/23 04:13:29;;;;;;;0.77;0.60;;;;;;;2.36;100.00;98640.63;6113548;19;20030;-74
2024/01/23 04:15:30;;;;;;;1.15;1.00;;;;;;;2.44;100.00;98639.03;6111034;19;20003;-74
2024/01/23 04:17:30;;;;;;;1.88;1.05;;;;;;;2.50;100.00;98646.75;6112434;19;20374;-74
2024/01/23 04:19:30;;;;;;;0.60;0.50;;;;;;;2.50;100.00;98665.88;6113743;19;20009;-74
2024/01/23 04:21:31;;;;;;;1.33;0.70;;;;;;;2.50;100.00;98652.22;6113031;19;20359;-74
2024/01/23 04:23:31;;;;;;;1.13;0.95;;;;;;;2.46;100.00;98653.16;6113120;19;20342;-74
2024/01/23 04:25:31;;;;;;;0.75;0.60;;;;;;;2.43;100.00;98656.56;6111425;19;20010;-74
2024/01/23 04:27:32;;;;;;;2.33;1.00;;;;;;;2.40;100.00;98654.44;6112997;19;20014;-74
2024/01/23 04:29:32;;;;;;;1.67;0.68;;;;;;;2.41;100.00;98661.53;6111739;19;20003;-73
2024/01/23 04:31:32;;;;;;;0.60;0.60;;;;;;;2.45;100.00;98660.56;6112538;19;20022;-74
2024/01/23 04:33:32;;;;;;;0.40;0.40;;;;;;;2.44;100.00;98655.44;6109820;19;20006;-74
2024/01/23 04:35:33;;;;;;;0.70;0.70;;;;;;;2.40;100.00;98668.09;6111168;19;20066;-74
2024/01/23 04:37:33;;;;;;;0.60;0.60;;;;;;;2.38;100.00;98681.28;6111824;19;20015;-74
2024/01/23 04:39:33;;;;;;;4.20;0.90;;;;;;;2.36;100.00;98686.25;6112162;19;20015;-74
2024/01/23 04:41:34;;;;;;;1.30;0.90;;;;;;;2.45;100.00;98681.59;6111850;19;20006;-74
2024/01/23 04:43:34;;;;;;;2.17;1.40;;;;;;;2.49;100.00;98691.59;6112058;19;20022;-74
2024/01/23 04:45:35;;;;;;;2.42;1.38;;;;;;;2.47;100.00;98691.09;6110628;19;20003;-74
2024/01/23 04:47:35;;;;;;;3.88;1.60;;;;;;;2.57;100.00;98691.91;6112016;19;20006;-74
2024/01/23 04:49:36;;;;;;;2.15;1.40;;;;;;;2.60;100.00;98683.06;6111351;19;20014;-74
2024/01/23 04:51:36;;;;;;;2.25;1.08;;;;;;;2.64;100.00;98700.41;6112790;19;20010;-74
2024/01/23 04:53:36;;;;;;;4.85;1.65;;;;;;;2.64;100.00;98703.94;6111924;19;20014;-74
2024/01/23 04:55:37;;;;;;;3.17;1.35;;;;;;;2.66;100.00;98701.72;6110697;19;20401;-74
2024/01/23 04:57:37;;;;;;;3.15;1.38;;;;;;;2.63;100.00;98709.75;6111300;19;20014;-74
2024/01/23 04:59:37;;;;;;;5.07;1.80;;;;;;;2.63;100.00;98709.75;6110649;19;20006;-74
2024/01/23 05:01:38;;;;;;;4.53;1.50;;;;;;;2.59;100.00;98722.44;6111963;19;20442;-73
2024/01/23 05:03:38;;;;;;;5.70;2.00;;;;;;;2.61;100.00;98721.00;6110705;19;20042;-74
2024/01/23 05:05:38;;;;;;;5.40;2.00;;;;;;;2.61;100.00;98736.59;6110516;19;20010;-74
2024/01/23 05:07:39;;;;;;;4.22;1.40;;;;;;;2.62;100.00;98752.66;6111641;19;20347;-74
2024/01/23 05:09:39;;;;;;;3.33;1.40;;;;;;;2.60;100.00;98740.44;6110245;19;20013;-74
2024/01/23 05:11:39;;;;;;;5.00;1.55;;;;;;;2.60;100.00;98749.44;6111739;19;20016;-74
2024/01/23 05:13:43;;;;;;;2.92;1.10;;;;;;;2.57;100.00;98746.56;6111895;19;20328;-74
2024/01/23 05:15:43;;;;;;;5.78;1.48;;;;;;;2.58;100.00;98746.22;6108707;19;20045;-74
2024/01/23 05:17:43;;;;;;;2.85;1.30;;;;;;;2.61;100.00;98750.25;6110473;19;20022;-74
2024/01/23 05:19:44;;;;;;;3.55;1.08;;;;;;;2.63;100.00;98762.44;6111490;19;20006;-74
2024/01/23 05:21:44;;;;;;;6.88;1.50;;;;;;;2.62;100.00;98758.09;6110370;19;20007;-74
2024/01/23 05:23:44;;;;;;;5.57;1.38;;;;;;;2.61;100.00;98755.69;6110600;19;20010;-74
2024/01/23 05:25:44;;;;;;;4.78;1.40;;;;;;;2.58;100.00;98759.09;6110415;19;20417;-74
2024/01/23 05:27:45;;;;;;;2.83;1.30;;;;;;;2.52;100.00;98770.16;6110531;19;20303;-74
2024/01/23 05:29:45;;;;;;;3.50;1.38;;;;;;;2.60;100.00;98774.03;6110724;19;19999;-74
2024/01/23 05:31:45;;;;;;;4.10;2.28;;;;;;;2.65;100.00;98776.63;6110677;19;20913;-74
2024/01/23 05:33:46;;;;;;;7.20;1.77;;;;;;;2.67;100.00;98771.63;6110355;19;20013;-74
2024/01/23 05:35:46;;;;;;;9.50;2.03;;;;;;;2.69;100.00;98766.66;6109398;19;20002;-73
2024/01/23 05:37:46;;;;;;;6.65;1.85;;;;;;;2.73;100.00;98781.28;6110848;19;20002;-74
2024/01/23 05:39:47;;;;;;;7.22;2.10;;;;;;;2.71;100.00;98783.50;6110857;19;20094;-74
2024/01/23 05:41:47;;;;;;;8.57;2.88;;;;;;;2.77;100.00;98781.44;6110915;19;19999;-74
2024/01/23 05:43:47;;;;;;;4.00;2.10;;;;;;;2.73;100.00;98792.22;6109680;19;20108;-74
2024/01/23 05:45:49;;;;;;;5.20;1.88;;;;;;;2.73;100.00;98794.13;6109801;19;19994;-73
2024/01/23 05:47:50;;;;;;;4.60;1.92;;;;;;;2.69;100.00;98804.09;6101113;19;20036;-74
2024/01/23 05:49:50;;;;;;;8.75;2.53;;;;;;;2.70;100.00;98816.63;6110198;19;20003;-73
2024/01/23 05:51:50;;;;;;;3.75;1.73;;;;;;;2.76;100.00;98826.28;6110620;19;20011;-74
2024/01/23 05:53:51;;;;;;;6.28;2.08;;;;;;;2.77;100.00;98814.22;6109643;19;19995;-73
2024/01/23 05:55:51;;;;;;;8.88;2.28;;;;;;;2.78;100.00;98822.09;6108549;19;19995;-74
2024/01/23 05:57:51;;;;;;;5.68;1.73;;;;;;;2.81;100.00;98817.94;6109769;19;20003;-74
2024/01/23 05:59:52;;;;;;;8.48;2.53;;;;;;;2.82;100.00;98825.03;6110397;19;20327;-74
2024/01/23 06:01:52;;;;;;;6.00;2.15;;;;;;;2.79;100.00;98831.09;6110189;19;20315;-74
2024/01/23 06:03:52;;;;;;;7.30;2.35;;;;;;;2.82;100.00;98827.75;6110192;19;19994;-73
2024/01/23 06:05:53;;;;;;;9.40;2.25;;;;;;;2.80;100.00;98824.53;6107417;19;20717;-73
2024/01/23 06:07:53;;;;;;;5.80;2.00;;;;;;;2.76;100.00;98818.91;6108952;19;20002;-73
2024/01/23 06:09:54;;;;;;;9.70;2.40;;;;;;;2.86;100.00;98828.72;6110476;19;20006;-73
2024/01/23 06:11:55;;;;;;;6.53;2.25;;;;;;;2.95;100.00;98834.19;6110408;19;20486;-73
2024/01/23 06:13:55;;;;;;;6.70;2.70;;;;;;;2.89;100.00;98832.72;6107089;19;20013;-73
2024/01/23 06:15:55;;;;;;;8.32;1.90;;;;;;;2.86;100.00;98830.66;6104584;19;20438;-73
2024/01/23 06:17:56;;;;;;;7.35;2.10;;;;;;;2.86;100.00;98836.91;6109184;19;20021;-73
2024/01/23 06:19:56;;;;;;;8.80;2.30;;;;;;;2.76;100.00;98843.50;6110166;19;20010;-73
2024/01/23 06:21:56;;;;;;;7.97;2.03;;;;;;;2.74;100.00;98843.00;6109337;19;20003;-73
2024/01/23 06:23:57;;;;;;;5.78;2.00;;;;;;;2.68;100.00;98851.66;6106712;19;20372;-73
2024/01/23 06:25:58;;;;;;;14.75;2.42;;;;;;;2.71;100.00;98851.81;6108339;19;20005;-73
2024/01/23 06:27:58;;;;;;;4.32;1.85;;;;;;;2.66;100.00;98849.25;6108430;19;20020;-73
2024/01/23 06:29:59;;;;;;;6.40;1.90;;;;;;;2.63;100.00;98870.91;6109588;19;19999;-73
2024/01/23 06:31:59;;;;;;;8.48;2.38;;;;;;;2.68;100.00;98863.41;6109361;19;20017;-73
2024/01/23 06:34:00;;;;;;;5.88;2.28;;;;;;;2.75;100.00;98866.47;6108454;19;20006;-73
2024/01/23 06:36:01;;;;;;;4.63;1.48;;;;;;;2.74;100.00;98855.88;6106801;19;19998;-73
2024/01/23 06:38:01;;;;;;;5.85;1.73;;;;;;;2.67;100.00;98872.72;6105020;19;20094;-73
2024/01/23 06:40:02;;;;;;;4.28;1.90;;;;;;;2.67;100.00;98888.31;6109302;19;20008;-73
2024/01/23 06:42:03;;;;;;;8.45;1.70;;;;;;;2.64;100.00;98903.38;6108358;19;20447;-73
2024/01/23 06:44:03;;;;;;;5.00;1.83;;;;;;;2.54;100.00;98899.00;6106269;19;20032;-74
2024/01/23 06:46:03;;;;;;;5.07;1.70;;;;;;;2.52;100.00;98889.53;6107480;19;19998;-73
2024/01/23 06:48:04;;;;;;;3.33;1.48;;;;;;;2.59;100.00;98906.28;6104395;19;19999;-74
2024/01/23 06:50:05;;;;;;;4.25;1.38;;;;;;;2.62;100.00;98907.56;6100427;19;20404;-73
2024/01/23 06:52:05;;;;;;;3.30;1.42;;;;;;;2.66;100.00;98917.56;6101369;19;19994;-74
2024/01/23 06:54:07;;;;;;;5.50;1.40;;;;;;;2.70;100.00;98931.38;6101917;19;20019;-73
2024/01/23 06:56:08;;;;;;;5.68;2.55;;;;;;;2.71;100.00;98933.78;6099328;19;20022;-73
2024/01/23 06:58:08;;;;;;;5.95;2.85;;;;;;;2.64;100.00;98927.97;6100711;19;20046;-73
2024/01/23 07:00:09;;;;;;;9.00;2.95;;;;;;;2.59;100.00;98936.31;6100992;19;20337;-73
2024/01/23 07:02:10;;;;;;;7.03;2.13;;;;;;;2.58;100.00;98942.91;6100589;19;20336;-73
2024/01/23 07:04:11;;;;;;;11.40;3.20;;;;;;;2.50;100.00;98939.00;6101559;19;20667;-73
2024/01/23 07:06:11;;;;;;;9.73;3.05;;;;;;;2.57;100.00;98943.22;6099583;19;20005;-73
2024/01/23 07:08:12;;;;;;;7.60;2.38;;;;;;;2.63;100.00;98944.69;6100369;19;20012;-73
2024/01/23 07:10:12;;;;;;;3.80;2.08;;;;;;;2.67;100.00;98946.47;6100649;19;20006;-73
2024/01/23 07:12:14;;;;;;;5.93;2.30;;;;;;;2.62;100.00;98960.28;6099586;19;19995;-73
2024/01/23 07:14:14;;;;;;;6.53;2.30;;;;;;;2.57;100.00;98954.97;6101333;19;20085;-73
2024/01/23 07:16:14;;;;;;;8.00;2.45;;;;;;;2.58;100.00;98962.03;6099560;19;20006;-73
2024/01/23 07:18:15;;;;;;;7.97;2.78;;;;;;;2.58;100.00;98964.75;6100020;19;20003;-73
2024/01/23 07:20:15;;;;;;;5.28;2.08;;;;;;;2.57;100.00;98970.53;6101905;19;20335;-73
2024/01/23 07:22:16;;;;;;;11.05;3.88;;;;;;;2.59;100.00;98977.31;6101094;19;20009;-73
2024/01/23 07:24:17;;;;;;;10.18;2.90;;;;;;;2.58;100.00;98970.22;6098622;19;20336;-73
2024/01/23 07:26:17;;;;;;;9.18;2.38;;;;;;;2.61;100.00;98977.78;6097698;19;20007;-73
2024/01/23 07:28:17;;;;;;;8.52;2.85;;;;;;;2.58;100.00;98975.69;6101252;19;20347;-73
2024/01/23 07:30:19;;;;;;;7.65;2.30;;;;;;;2.61;100.00;98976.97;6100610;19;20252;-73
2024/01/23 07:32:19;;;;;;;9.82;3.30;;;;;;;2.68;100.00;98972.69;6100687;19;20463;-73
2024/01/23 07:34:20;;;;;;;11.93;2.60;;;;;;;2.80;100.00;98974.81;6099708;19;20009;-73
2024/01/23 07:36:20;;;;;;;10.88;3.38;;;;;;;2.93;100.00;98986.78;6099644;19;20034;-73
2024/01/23 07:38:20;;;;;;;9.07;3.55;;;;;;;2.98;100.00;98982.00;6099830;19;20074;-73
2024/01/23 07:40:21;;;;;;;12.38;3.03;;;;;;;3.01;100.00;98988.75;6100718;19;20504;-73
2024/01/23 07:42:21;;;;;;;13.80;3.40;;;;;;;3.03;100.00;98998.22;6100417;19;20022;-73
2024/01/23 07:44:21;;;;;;;8.60;3.38;;;;;;;3.09;100.00;98998.91;6099684;19;20015;-73
2024/01/23 07:46:22;;;;;;;8.70;3.60;;;;;;;3.10;100.00;98997.78;6096974;19;20041;-73
2024/01/23 07:48:23;;;;;;;11.23;3.42;;;;;;;3.10;100.00;99000.50;6103432;19;20336;-73
2024/01/23 07:50:23;;;;;;;9.68;3.28;;;;;;;3.12;100.00;99008.41;6107916;19;20074;-73
2024/01/23 07:52:26;;;;;;;10.93;3.25;;;;;;;3.17;100.00;99011.00;6107383;19;20539;-73
2024/01/23 07:54:26;;;;;;;7.07;3.33;;;;;;;3.17;100.00;99006.34;6105867;19;20905;-73
2024/01/23 07:56:27;;;;;;;14.25;3.15;;;;;;;3.12;100.00;99006.47;6106245;19;20026;-73
2024/01/23 07:58:27;;;;;;;9.57;2.67;;;;;;;3.12;100.00;99011.94;6106135;19;20017;-73
2024/01/23 08:00:28;;;;;;;9.68;2.75;;;;;;;3.12;100.00;99025.59;6104089;19;20058;-73
2024/01/23 08:02:28;;;;;;;10.68;2.70;;;;;;;3.16;100.00;99040.28;6107273;19;20023;-73
2024/01/23 08:04:29;;;;;;;9.15;2.53;;;;;;;3.18;100.00;99039.94;6106954;19;20010;-73
2024/01/23 08:06:29;;;;;;;11.23;3.05;;;;;;;3.25;100.00;99045.78;6105755;19;20003;-73
2024/01/23 08:08:30;;;;;;;6.95;3.08;;;;;;;3.32;100.00;99051.59;6106827;19;20066;-73
2024/01/23 08:10:31;;;;;;;11.18;3.05;;;;;;;3.36;100.00;99060.78;6106562;19;20029;-73
2024/01/23 08:12:31;;;;;;;10.10;3.00;;;;;;;3.33;100.00;99075.91;6106513;19;20010;-73
2024/01/23 08:14:32;;;;;;;6.30;2.58;;;;;;;3.40;100.00;99071.91;6106764;19;20082;-73
2024/01/23 08:16:32;;;;;;;10.57;3.00;;;;;;;3.42;100.00;99080.59;6105791;19;20082;-74
2024/01/23 08:18:32;;;;;;;6.55;2.28;;;;;;;3.42;100.00;99072.38;6106479;19;20029;-73
2024/01/23 08:20:33;;;;;;;7.55;2.80;;;;;;;3.45;100.00;99074.47;6105209;19;20339;-73
2024/01/23 08:22:33;;;;;;;12.18;3.03;;;;;;;3.60;100.00;99076.78;6106687;19;20018;-73
2024/01/23 08:24:33;;;;;;;12.40;4.28;;;;;;;3.59;100.00;99089.66;6105404;19;20363;-73
2024/01/23 08:26:33;;;;;;;11.85;3.20;;;;;;;3.63;100.00;99090.63;6103631;19;20007;-73
2024/01/23 08:28:34;;;;;;;6.50;3.15;;;;;;;3.70;100.00;99092.91;6106787;19;20451;-73
2024/01/23 08:30:34;;;;;;;8.93;2.75;;;;;;;3.68;100.00;99078.75;6105104;19;20344;-73
2024/01/23 08:32:34;;;;;;;5.50;2.47;;;;;;;3.68;100.00;99089.69;6105086;19;20021;-73
2024/01/23 08:34:35;;;;;;;8.35;3.63;;;;;;;3.73;100.00;99086.00;6106680;19;20348;-74
2024/01/23 08:36:35;;;;;;;10.38;3.00;;;;;;;3.70;100.00;99084.69;6104433;19;20017;-73
2024/01/23 08:38:36;;;;;;;6.78;2.42;;;;;;;3.69;100.00;99091.31;6107306;19;20006;-73
2024/01/23 08:40:41;;;;;;;9.20;2.65;;;;;;;3.75;100.00;99091.97;6110588;19;20023;-73
2024/01/23 08:42:42;;;;;;;10.73;2.50;;;;;;;3.83;100.00;99094.72;6113751;19;20049;-73
2024/01/23 08:44:46;;;;;;;8.77;2.95;;;;;;;3.75;100.00;99090.03;6111871;19;20098;-73
2024/01/23 08:46:48;;;;;;;13.20;2.85;;;;;;;3.81;100.00;99090.72;6111494;19;20656;-73
2024/01/23 08:48:51;;;;;;;11.05;2.78;;;;;;;3.92;100.00;99081.06;6111852;19;20006;-73
2024/01/23 08:50:52;;;;;;;7.65;2.55;;;;;;;3.90;100.00;99094.25;6111004;19;20025;-73
2024/01/23 08:52:53;;;;;;;9.80;3.10;;;;;;;3.84;100.00;99088.13;6112679;19;20007;-73
2024/01/23 08:54:53;;;;;;;9.13;2.63;;;;;;;3.83;100.00;99097.47;6111463;19;20075;-73
2024/01/23 08:56:56;;;;;;;11.90;2.70;;;;;;;3.85;100.00;99105.34;6108649;19;20338;-73
2024/01/23 08:58:56;;;;;;;7.65;2.80;;;;;;;3.86;100.00;99107.78;6111645;19;20003;-73
2024/01/23 09:00:57;;;;;;;9.68;3.20;;;;;;;3.91;100.00;99115.03;6112297;19;20021;-74
2024/01/23 09:02:57;;;;;;;9.20;2.63;;;;;;;3.96;100.00;99128.56;6112165;19;20003;-73
2024/01/23 09:04:57;;;;;;;8.85;2.53;;;;;;;4.11;100.00;99136.31;6110008;19;20009;-74
2024/01/23 09:06:58;;;;;;;10.35;3.08;;;;;;;4.13;100.00;99139.56;6110397;19;19998;-74
2024/01/23 09:08:58;;;;;;;10.30;3.08;;;;;;;4.23;100.00;99150.22;6111112;19;20007;-73
2024/01/23 09:10:58;;;;;;;6.68;2.55;;;;;;;4.30;100.00;99157.13;6112314;19;20025;-73
2024/01/23 09:12:59;;;;;;;6.18;2.00;;;;;;;4.26;100.00;99164.41;6112637;19;20033;-73
2024/01/23 09:14:59;;;;;;;9.77;2.47;;;;;;;4.31;100.00;99170.53;6111258;19;20006;-73
2024/01/23 09:17:00;;;;;;;11.77;2.67;;;;;;;4.46;100.00;99166.50;6111859;19;20088;-73
2024/01/23 09:19:00;;;;;;;6.10;2.65;;;;;;;4.52;100.00;99181.69;6110782;19;20014;-74
2024/01/23 09:21:02;;;;;;;9.13;2.58;;;;;;;4.53;100.00;99191.50;6111817;19;20031;-73
2024/01/23 09:23:03;;;;;;;12.98;2.97;;;;;;;4.53;100.00;99191.50;6111349;19;20009;-73
2024/01/23 09:25:05;;;;;;;17.73;4.25;;;;;;;4.59;100.00;99197.66;6110327;19;20432;-73